Time;durP1;ratioP1;P1;durP2;ratioP2;P2;SDS_P1;SDS_P2;PMS_P1;PMS_P2;Temp;Humidity;BMP_temperature;BMP_pressure;BME280_temperature;BME280_humidity;BME280_pressure;Samples;Min_cycle;Max_cycle;Signal;HPM_P1;HPM_P2
2023/03/13 00:00:11;;;;;;;39.23;9.00;;;7.20;1.00;;;;;;5019676;28;20566;-49
2023/03/13 00:02:36;;;;;;;33.97;7.70;;;7.30;1.00;;;;;;5019854;28;20332;-49
2023/03/13 00:05:02;;;;;;;35.10;8.80;;;7.30;1.00;;;;;;5022973;28;20919;-50
2023/03/13 00:07:28;;;;;;;37.47;8.67;;;7.30;1.00;;;;;;5019651;28;20187;-50
2023/03/13 00:09:53;;;;;;;42.30;9.40;;;7.30;1.00;;;;;;5021976;28;20182;-50
2023/03/13 00:12:19;;;;;;;29.23;7.90;;;7.30;1.00;;;;;;5019542;28;20538;-49
2023/03/13 00:14:44;;;;;;;28.60;8.57;;;7.30;1.00;;;;;;5019388;28;20282;-49
2023/03/13 00:17:10;;;;;;;33.30;8.20;;;7.30;1.00;;;;;;5018897;28;20213;-50
2023/03/13 00:19:36;;;;;;;31.63;8.53;;;7.30;1.00;;;;;;5018834;28;20293;-50
2023/03/13 00:22:01;;;;;;;34.50;8.57;;;7.30;1.00;;;;;;5019067;28;20585;-51
2023/03/13 00:24:27;;;;;;;36.23;8.63;;;7.30;1.00;;;;;;5023608;28;20191;-50
2023/03/13 00:26:54;;;;;;;34.20;7.77;;;7.30;1.00;;;;;;5018941;28;20258;-50
2023/03/13 00:29:19;;;;;;;39.97;8.30;;;7.30;1.00;;;;;;5018600;28;20324;-50
2023/03/13 00:31:45;;;;;;;36.60;8.30;;;7.30;1.00;;;;;;5018877;28;20541;-49
2023/03/13 00:34:11;;;;;;;28.07;9.00;;;7.30;1.00;;;;;;5018073;28;20208;-49
2023/03/13 00:36:36;;;;;;;46.23;9.33;;;7.30;1.00;;;;;;5019225;28;20198;-51
2023/03/13 00:39:04;;;;;;;44.07;8.67;;;7.40;1.00;;;;;;5018573;28;20868;-51
2023/03/13 00:41:31;;;;;;;32.60;10.00;;;7.40;1.00;;;;;;5018677;28;20325;-50
2023/03/13 00:43:57;;;;;;;39.03;8.67;;;7.40;1.00;;;;;;5017935;28;20490;-50
2023/03/13 00:46:26;;;;;;;33.10;7.63;;;7.40;1.00;;;;;;5021538;28;20819;-50
2023/03/13 00:48:52;;;;;;;39.40;8.33;;;7.40;1.00;;;;;;5022479;28;20468;-50
2023/03/13 00:51:19;;;;;;;31.57;8.60;;;7.40;1.00;;;;;;5022725;28;20457;-50
2023/03/13 00:53:45;;;;;;;43.33;8.20;;;7.40;1.00;;;;;;5018433;28;20434;-49
2023/03/13 00:56:13;;;;;;;44.13;9.23;;;7.40;1.00;;;;;;5018355;28;20781;-50
2023/03/13 00:58:41;;;;;;;37.60;10.47;;;7.40;1.00;;;;;;5022151;28;20453;-49
2023/03/13 01:01:07;;;;;;;37.20;8.47;;;7.40;1.00;;;;;;5021756;28;20477;-49
2023/03/13 01:03:34;;;;;;;29.07;8.43;;;7.40;1.00;;;;;;5018056;28;20473;-50
2023/03/13 01:06:01;;;;;;;35.93;8.10;;;7.50;1.00;;;;;;5017999;28;20538;-50
2023/03/13 01:08:28;;;;;;;33.77;8.13;;;7.40;1.00;;;;;;5018163;28;20437;-50
2023/03/13 01:11:05;;;;;;;54.03;9.13;;;7.50;1.00;;;;;;5017624;28;20633;-50
2023/03/13 01:13:34;;;;;;;28.83;8.63;;;7.50;1.00;;;;;;5017723;28;20480;-50
2023/03/13 01:16:10;;;;;;;36.53;8.67;;;7.50;1.00;;;;;;5017801;28;20474;-50
2023/03/13 01:18:38;;;;;;;37.17;8.63;;;7.50;1.00;;;;;;5018453;28;20453;-50
2023/03/13 01:21:05;;;;;;;31.13;8.67;;;7.60;1.00;;;;;;5017738;28;20468;-50
2023/03/13 01:23:31;;;;;;;35.67;9.60;;;7.50;1.00;;;;;;5017673;28;20470;-49
2023/03/13 01:25:57;;;;;;;37.33;9.03;;;7.60;1.00;;;;;;5017356;28;20855;-50
2023/03/13 01:28:24;;;;;;;33.87;8.67;;;7.60;1.00;;;;;;5021898;28;20211;-50
2023/03/13 01:30:50;;;;;;;37.50;8.77;;;7.60;1.00;;;;;;5017548;28;20233;-50
2023/03/13 01:33:15;;;;;;;45.60;8.90;;;7.60;1.00;;;;;;5017961;28;20945;-50
2023/03/13 01:35:41;;;;;;;43.17;10.23;;;7.60;1.00;;;;;;5017680;28;20437;-50
2023/03/13 01:38:07;;;;;;;36.43;8.83;;;7.60;1.00;;;;;;5020873;28;20310;-50
2023/03/13 01:40:44;;;;;;;43.63;9.70;;;7.60;1.00;;;;;;5017658;28;20438;-50
2023/03/13 01:43:25;;;;;;;29.73;8.00;;;7.70;1.00;;;;;;5020929;28;20254;-50
2023/03/13 01:45:57;;;;;;;44.83;9.30;;;7.70;1.00;;;;;;5016525;28;20500;-50
2023/03/13 01:48:56;;;;;;;35.63;8.27;;;7.70;1.00;;;;;;5018237;28;20442;-50
2023/03/13 01:51:25;;;;;;;45.13;9.17;;;7.70;1.00;;;;;;5017184;28;20453;-50
2023/03/13 01:53:59;;;;;;;43.37;9.13;;;7.70;1.00;;;;;;5017811;28;20852;-49
2023/03/13 01:56:37;;;;;;;45.20;9.20;;;7.70;1.00;;;;;;5021955;28;20471;-50
2023/03/13 01:59:05;;;;;;;37.67;8.83;;;7.70;1.00;;;;;;5017088;28;20442;-51
2023/03/13 02:01:32;;;;;;;27.73;8.33;;;7.60;1.00;;;;;;5017233;28;20438;-50
2023/03/13 02:03:58;;;;;;;39.27;9.17;;;7.60;1.00;;;;;;5016674;28;20953;-50
2023/03/13 02:06:28;;;;;;;32.37;9.00;;;7.60;1.00;;;;;;5016987;28;20487;-50
2023/03/13 02:08:57;;;;;;;30.23;8.33;;;7.60;1.00;;;;;;5016938;28;20199;-49
2023/03/13 02:11:28;;;;;;;44.30;9.13;;;7.70;1.00;;;;;;5016040;28;20452;-51
2023/03/13 02:13:55;;;;;;;30.30;7.43;;;7.70;1.00;;;;;;5020954;28;20852;-50
2023/03/13 02:16:21;;;;;;;31.70;8.37;;;7.70;1.00;;;;;;5016937;28;20503;-50
2023/03/13 02:18:47;;;;;;;44.17;8.83;;;7.70;1.00;;;;;;5016308;28;20800;-49
2023/03/13 02:21:34;;;;;;;36.23;9.27;;;7.80;1.00;;;;;;5016639;28;20851;-50
2023/03/13 02:24:55;;;;;;;42.23;8.60;;;7.80;1.00;;;;;;5016831;28;20476;-49
2023/03/13 02:27:21;;;;;;;38.03;9.20;;;7.80;1.00;;;;;;5009678;28;20827;-50
2023/03/13 02:29:48;;;;;;;42.70;9.03;;;7.80;1.00;;;;;;5016339;28;20437;-50
2023/03/13 02:32:14;;;;;;;40.17;8.47;;;7.80;1.00;;;;;;5019995;28;20448;-49
2023/03/13 02:34:41;;;;;;;40.40;7.83;;;7.80;1.00;;;;;;5017277;28;20445;-50
2023/03/13 02:37:11;;;;;;;33.50;7.97;;;7.70;1.00;;;;;;5016723;28;20434;-49
2023/03/13 02:39:40;;;;;;;36.67;8.73;;;7.80;1.00;;;;;;5015836;28;21001;-50
2023/03/13 02:42:06;;;;;;;43.43;8.50;;;7.80;1.00;;;;;;5016239;28;20445;-50
2023/03/13 02:44:40;;;;;;;30.30;7.23;;;7.80;1.00;;;;;;5016509;28;20889;-49
2023/03/13 02:47:08;;;;;;;45.57;7.47;;;7.80;1.00;;;;;;5017238;28;20219;-50
2023/03/13 02:49:34;;;;;;;32.07;6.40;;;7.80;1.00;;;;;;5016712;28;20453;-50
2023/03/13 02:52:11;;;;;;;34.30;8.00;;;7.80;1.00;;;;;;5016041;28;20438;-49
2023/03/13 02:54:38;;;;;;;39.90;7.07;;;7.80;1.00;;;;;;5016956;28;20477;-49
2023/03/13 02:57:04;;;;;;;39.83;8.97;;;7.80;1.00;;;;;;5016429;28;20794;-49
2023/03/13 02:59:31;;;;;;;39.10;8.53;;;7.80;1.00;;;;;;5016318;28;20442;-50
2023/03/13 03:01:56;;;;;;;33.10;8.20;;;7.80;1.00;;;;;;5016791;28;20209;-49
2023/03/13 03:04:23;;;;;;;33.30;7.87;;;7.90;1.00;;;;;;5016033;28;20441;-49
2023/03/13 03:06:50;;;;;;;35.60;7.57;;;7.80;1.00;;;;;;5015977;28;20276;-50
2023/03/13 03:09:17;;;;;;;31.93;7.67;;;7.80;2.00;;;;;;5016050;28;21039;-50
2023/03/13 03:11:42;;;;;;;40.20;7.43;;;7.80;18.50;;;;;;5016610;28;20908;-49
2023/03/13 03:14:10;;;;;;;43.13;7.83;;;7.80;26.30;;;;;;5015715;28;20496;-49
2023/03/13 03:16:36;;;;;;;32.47;8.43;;;7.80;35.20;;;;;;5016340;28;20199;-49
2023/03/13 03:19:02;;;;;;;32.23;7.60;;;7.80;49.00;;;;;;5016537;28;20445;-49
2023/03/13 03:21:27;;;;;;;45.57;7.47;;;7.80;54.50;;;;;;5015791;28;20453;-48
2023/03/13 03:23:53;;;;;;;34.30;7.67;;;7.90;59.80;;;;;;5016056;28;20647;-51
2023/03/13 03:26:19;;;;;;;34.73;8.50;;;7.90;61.30;;;;;;5015627;28;20743;-49
2023/03/13 03:28:45;;;;;;;27.20;6.20;;;7.90;62.10;;;;;;5015948;28;20190;-51
2023/03/13 03:31:12;;;;;;;43.40;8.47;;;7.90;63.10;;;;;;5015566;28;20441;-50
2023/03/13 03:33:38;;;;;;;37.17;7.63;;;8.00;72.50;;;;;;5015876;28;20263;-49
2023/03/13 03:36:07;;;;;;;24.43;7.13;;;8.00;72.10;;;;;;5016254;28;20433;-50
2023/03/13 03:38:33;;;;;;;38.13;7.23;;;8.00;67.00;;;;;;5015725;28;20492;-49
2023/03/13 03:40:58;;;;;;;36.70;8.47;;;8.00;76.40;;;;;;5015858;28;20450;-50
2023/03/13 03:43:24;;;;;;;34.57;6.67;;;8.00;70.30;;;;;;5015683;28;20189;-49
2023/03/13 03:45:50;;;;;;;33.00;6.83;;;8.10;67.40;;;;;;5015817;28;20253;-49
2023/03/13 03:48:16;;;;;;;23.03;6.77;;;8.10;70.50;;;;;;5019254;28;20206;-49
2023/03/13 03:50:41;;;;;;;35.60;7.33;;;8.10;61.90;;;;;;5016514;28;20651;-49
2023/03/13 03:53:07;;;;;;;40.43;6.97;;;8.00;63.90;;;;;;5016043;28;20183;-49
2023/03/13 03:55:34;;;;;;;33.23;7.40;;;8.00;81.10;;;;;;5015836;28;20274;-49
2023/03/13 03:57:59;;;;;;;31.03;7.00;;;8.10;94.20;;;;;;5019470;28;20536;-49
2023/03/13 04:00:26;;;;;;;34.60;7.57;;;8.10;95.00;;;;;;5015771;28;20939;-49
2023/03/13 04:02:52;;;;;;;49.03;8.93;;;8.10;90.80;;;;;;5015621;28;20256;-49
2023/03/13 04:05:18;;;;;;;32.97;7.63;;;8.10;94.90;;;;;;5015818;28;20483;-49
2023/03/13 04:07:43;;;;;;;26.90;6.50;;;8.10;99.90;;;;;;5015826;28;20547;-49
2023/03/13 04:10:09;;;;;;;35.17;6.73;;;8.10;99.90;;;;;;5017882;28;20198;-49
2023/03/13 04:12:35;;;;;;;36.47;6.80;;;8.10;99.90;;;;;;5018982;28;20209;-49
2023/03/13 04:15:01;;;;;;;34.33;6.50;;;8.10;99.90;;;;;;5019642;28;20937;-49
2023/03/13 04:17:26;;;;;;;31.60;6.17;;;8.10;99.90;;;;;;5018894;28;20191;-50
2023/03/13 04:19:52;;;;;;;41.10;7.60;;;8.10;99.90;;;;;;5019499;28;20516;-48
2023/03/13 04:22:17;;;;;;;27.87;6.63;;;8.10;99.90;;;;;;5018766;28;20229;-49
2023/03/13 04:24:43;;;;;;;31.13;6.93;;;8.10;99.90;;;;;;5018881;28;20256;-49
2023/03/13 04:27:09;;;;;;;30.23;7.47;;;8.10;99.90;;;;;;5019127;28;20218;-49
2023/03/13 04:29:34;;;;;;;29.40;7.90;;;8.10;99.90;;;;;;5018953;28;20190;-49
2023/03/13 04:32:00;;;;;;;25.17;6.53;;;8.20;99.90;;;;;;5018444;28;20218;-49
2023/03/13 04:34:27;;;;;;;27.10;6.63;;;8.10;99.90;;;;;;5019052;28;20191;-49
2023/03/13 04:36:54;;;;;;;31.17;6.30;;;8.10;99.90;;;;;;5022884;28;20446;-49
2023/03/13 04:39:24;;;;;;;31.40;7.57;;;8.10;99.90;;;;;;5018505;28;20535;-48
2023/03/13 04:41:52;;;;;;;32.03;7.17;;;8.10;99.90;;;;;;5018630;28;20476;-49
2023/03/13 04:44:18;;;;;;;35.57;6.83;;;8.10;99.90;;;;;;5021594;28;20481;-49
2023/03/13 04:46:44;;;;;;;27.27;6.93;;;8.10;99.90;;;;;;5018804;28;20863;-48
2023/03/13 04:49:09;;;;;;;36.00;6.20;;;8.10;99.90;;;;;;5018581;28;20183;-49
2023/03/13 04:51:35;;;;;;;28.40;7.33;;;8.10;99.90;;;;;;5018413;28;20198;-48
2023/03/13 04:54:01;;;;;;;29.10;6.77;;;8.10;99.90;;;;;;5018983;28;20191;-49
2023/03/13 04:56:27;;;;;;;31.33;6.17;;;8.10;99.90;;;;;;5018073;28;20221;-48
2023/03/13 04:58:53;;;;;;;27.27;6.30;;;8.00;99.90;;;;;;5018529;28;20309;-49
2023/03/13 05:01:19;;;;;;;33.47;6.53;;;8.00;99.90;;;;;;5018191;28;20985;-48
2023/03/13 05:03:45;;;;;;;27.77;6.83;;;8.00;99.90;;;;;;5018543;28;20551;-48
2023/03/13 05:06:11;;;;;;;25.80;6.97;;;8.00;99.90;;;;;;5017874;28;20481;-50
2023/03/13 05:08:37;;;;;;;26.63;6.50;;;8.00;99.90;;;;;;5019688;28;20278;-48
2023/03/13 05:11:03;;;;;;;27.50;6.17;;;8.00;99.90;;;;;;5018722;28;20866;-48
2023/03/13 05:13:29;;;;;;;27.07;7.27;;;7.90;99.90;;;;;;5019235;28;20186;-48
2023/03/13 05:15:55;;;;;;;27.20;7.20;;;7.90;99.90;;;;;;5019894;28;20437;-50
2023/03/13 05:18:21;;;;;;;27.20;7.97;;;7.90;99.90;;;;;;5018028;28;20847;-48
2023/03/13 05:20:47;;;;;;;27.30;7.03;;;7.90;99.90;;;;;;5018153;28;20191;-48
2023/03/13 05:23:12;;;;;;;26.83;6.00;;;7.90;99.90;;;;;;5017342;28;20439;-48
2023/03/13 05:25:38;;;;;;;23.97;6.20;;;8.00;99.90;;;;;;5017531;28;20246;-49
2023/03/13 05:28:03;;;;;;;31.70;7.60;;;8.00;99.90;;;;;;5018134;28;20267;-48
2023/03/13 05:30:29;;;;;;;19.13;6.20;;;8.00;99.90;;;;;;5023416;28;20191;-48
2023/03/13 05:32:55;;;;;;;26.77;6.03;;;8.00;99.90;;;;;;5017373;28;20195;-48
2023/03/13 05:35:20;;;;;;;16.37;5.80;;;8.00;99.90;;;;;;5018196;28;20194;-48
2023/03/13 05:37:46;;;;;;;19.00;6.07;;;8.00;99.90;;;;;;5017966;28;20272;-49
2023/03/13 05:40:12;;;;;;;21.13;5.67;;;8.00;99.90;;;;;;5017033;28;20205;-48
2023/03/13 05:42:39;;;;;;;21.53;5.70;;;8.00;99.90;;;;;;5017766;28;20195;-48
2023/03/13 05:45:05;;;;;;;18.57;5.97;;;8.00;99.90;;;;;;5017166;28;20503;-48
2023/03/13 05:47:30;;;;;;;24.00;6.13;;;8.00;99.90;;;;;;5020874;28;20435;-48
2023/03/13 05:49:56;;;;;;;22.37;5.70;;;8.00;99.90;;;;;;5024978;28;20452;-48
2023/03/13 05:52:21;;;;;;;20.73;4.50;;;8.00;99.90;;;;;;5026220;28;20634;-48
2023/03/13 05:54:47;;;;;;;13.77;4.77;;;8.10;99.90;;;;;;5021374;28;20277;-48
2023/03/13 05:57:13;;;;;;;13.27;4.33;;;8.10;99.90;;;;;;5020584;28;20570;-48
2023/03/13 05:59:39;;;;;;;13.63;4.30;;;8.10;99.90;;;;;;5017006;28;20198;-49
2023/03/13 06:02:04;;;;;;;14.40;4.60;;;8.10;99.90;;;;;;5016962;28;20701;-49
2023/03/13 06:04:30;;;;;;;10.30;3.60;;;8.10;99.90;;;;;;5017378;28;20436;-47
2023/03/13 06:06:55;;;;;;;10.07;3.60;;;8.20;99.90;;;;;;5016642;28;20402;-48
2023/03/13 06:09:21;;;;;;;11.13;3.00;;;8.30;99.90;;;;;;5017612;28;20194;-48
2023/03/13 06:11:47;;;;;;;8.30;2.63;;;8.30;99.90;;;;;;5017469;28;20558;-49
2023/03/13 06:14:12;;;;;;;6.53;2.70;;;8.30;99.90;;;;;;5016576;28;20207;-48
2023/03/13 06:16:38;;;;;;;10.57;3.33;;;8.40;99.90;;;;;;5017184;28;20190;-48
2023/03/13 06:19:03;;;;;;;4.40;2.37;;;8.50;99.90;;;;;;5016555;28;20260;-48
2023/03/13 06:21:29;;;;;;;8.90;2.73;;;8.50;99.90;;;;;;5016778;28;20677;-48
2023/03/13 06:23:55;;;;;;;8.70;2.93;;;8.60;99.90;;;;;;5019943;28;20194;-48
2023/03/13 06:26:23;;;;;;;10.67;3.20;;;8.70;99.90;;;;;;5017436;28;20628;-48
2023/03/13 06:28:49;;;;;;;6.20;3.17;;;8.70;99.90;;;;;;5016413;28;20275;-48
2023/03/13 06:31:14;;;;;;;11.00;2.30;;;8.80;99.90;;;;;;5021571;28;20535;-48
2023/03/13 06:33:40;;;;;;;9.60;2.33;;;8.80;99.90;;;;;;5021976;28;20190;-49
2023/03/13 06:36:06;;;;;;;6.93;2.20;;;8.80;99.90;;;;;;5023658;28;20194;-49
2023/03/13 06:38:32;;;;;;;5.20;2.20;;;8.80;99.90;;;;;;5020468;28;20245;-48
2023/03/13 06:40:57;;;;;;;3.40;2.00;;;8.90;99.90;;;;;;5016981;28;20285;-48
2023/03/13 06:43:23;;;;;;;4.70;2.40;;;8.90;99.90;;;;;;5016103;28;20555;-48
2023/03/13 06:45:49;;;;;;;5.47;1.77;;;8.90;99.90;;;;;;5016885;28;20651;-48
2023/03/13 06:48:14;;;;;;;7.20;2.03;;;8.90;99.90;;;;;;5020216;28;20214;-48
2023/03/13 06:50:41;;;;;;;4.00;2.30;;;9.00;99.90;;;;;;5016494;28;20272;-48
2023/03/13 06:53:07;;;;;;;6.40;2.50;;;9.00;99.90;;;;;;5016460;28;20217;-49
2023/03/13 06:55:33;;;;;;;6.53;2.37;;;9.00;99.90;;;;;;5016700;28;20921;-48
2023/03/13 06:57:58;;;;;;;5.30;2.83;;;9.00;99.90;;;;;;5016798;28;20451;-48
2023/03/13 07:00:24;;;;;;;6.67;2.73;;;9.10;99.90;;;;;;5016009;28;20193;-48
2023/03/13 07:02:50;;;;;;;4.90;2.60;;;9.10;99.90;;;;;;5016950;28;20282;-48
2023/03/13 07:05:16;;;;;;;3.13;2.40;;;9.20;99.90;;;;;;5015928;28;20192;-48
2023/03/13 07:07:42;;;;;;;7.17;3.23;;;9.30;99.90;;;;;;5020018;28;20963;-49
2023/03/13 07:10:09;;;;;;;3.90;2.97;;;9.30;99.90;;;;;;5016089;28;20183;-48
2023/03/13 07:12:36;;;;;;;7.43;2.77;;;9.30;99.90;;;;;;5019788;28;20450;-48
2023/03/13 07:15:02;;;;;;;5.37;2.53;;;9.30;99.90;;;;;;5016492;28;20448;-48
2023/03/13 07:17:27;;;;;;;4.87;3.00;;;9.30;99.90;;;;;;5019373;28;20481;-48
2023/03/13 07:19:53;;;;;;;5.30;2.90;;;9.30;99.90;;;;;;5016320;28;20468;-48
2023/03/13 07:22:18;;;;;;;4.87;3.00;;;9.40;99.90;;;;;;5015991;28;20199;-47
2023/03/13 07:24:44;;;;;;;6.10;3.43;;;9.40;99.90;;;;;;5016502;28;20186;-48
2023/03/13 07:27:10;;;;;;;8.90;4.93;;;9.40;99.90;;;;;;5015383;28;20222;-48
2023/03/13 07:29:35;;;;;;;6.63;3.43;;;9.40;99.90;;;;;;5016598;28;20186;-48
2023/03/13 07:32:01;;;;;;;6.27;4.50;;;9.40;99.90;;;;;;5016477;28;20261;-48
2023/03/13 07:34:27;;;;;;;11.00;3.53;;;9.50;99.90;;;;;;5015632;28;20210;-47
2023/03/13 07:36:52;;;;;;;4.83;3.30;;;9.50;99.90;;;;;;5016379;28;20199;-47
2023/03/13 07:39:18;;;;;;;5.40;3.63;;;9.50;99.90;;;;;;5015812;28;20193;-47
2023/03/13 07:41:43;;;;;;;7.20;3.80;;;9.50;99.90;;;;;;5016099;28;20631;-48
2023/03/13 07:44:09;;;;;;;9.63;4.00;;;9.60;99.90;;;;;;5016813;28;20654;-47
2023/03/13 07:46:35;;;;;;;7.43;4.40;;;9.60;99.90;;;;;;5019294;28;20214;-47
2023/03/13 07:49:00;;;;;;;9.20;5.10;;;9.70;99.90;;;;;;5023465;28;20193;-46
2023/03/13 07:51:26;;;;;;;9.77;4.80;;;9.70;99.90;;;;;;5008010;28;21511;-49
2023/03/13 07:53:52;;;;;;;8.50;4.60;;;9.80;99.90;;;;;;5018614;28;20201;-48
2023/03/13 07:56:20;;;;;;;6.50;4.43;;;9.90;99.90;;;;;;5019793;28;20500;-47
2023/03/13 07:58:46;;;;;;;9.03;4.40;;;9.90;99.90;;;;;;5020466;28;24200;-50
2023/03/13 08:01:20;;;;;;;10.33;4.40;;;9.90;99.90;;;;;;5026051;28;20445;-47
2023/03/13 08:03:49;;;;;;;9.67;5.07;;;10.00;99.90;;;;;;5020308;28;20476;-48
2023/03/13 08:06:17;;;;;;;7.53;4.80;;;10.00;99.90;;;;;;5019438;28;20981;-48
2023/03/13 08:08:43;;;;;;;7.83;5.10;;;10.10;99.90;;;;;;5018676;28;20963;-47
2023/03/13 08:11:11;;;;;;;9.20;5.30;;;10.20;99.90;;;;;;5018930;28;20441;-48
2023/03/13 08:13:37;;;;;;;12.50;6.37;;;10.20;99.90;;;;;;5022498;28;20206;-47
2023/03/13 08:16:07;;;;;;;9.00;5.57;;;10.30;99.90;;;;;;5019707;28;20537;-48
2023/03/13 08:18:34;;;;;;;7.87;5.77;;;10.30;99.90;;;;;;5019453;28;20446;-47
2023/03/13 08:21:06;;;;;;;6.83;5.13;;;10.40;99.90;;;;;;5018905;28;20441;-47
2023/03/13 08:23:32;;;;;;;6.60;4.90;;;10.40;99.90;;;;;;5022140;28;20858;-47
2023/03/13 08:26:10;;;;;;;7.40;5.20;;;10.50;99.90;;;;;;5028431;28;20461;-47
2023/03/13 08:28:36;;;;;;;6.30;4.83;;;10.60;99.90;;;;;;5035336;28;20431;-47
2023/03/13 08:31:18;;;;;;;5.63;4.87;;;10.60;99.90;;;;;;5016595;28;20512;-48
2023/03/13 08:33:44;;;;;;;5.50;4.50;;;10.70;99.90;;;;;;5016330;28;20409;-48
2023/03/13 08:36:16;;;;;;;7.50;4.70;;;10.70;99.90;;;;;;5016069;28;20437;-48
2023/03/13 08:38:43;;;;;;;6.87;5.40;;;10.70;99.90;;;;;;5016638;28;20464;-47
2023/03/13 08:41:09;;;;;;;7.57;5.70;;;10.70;99.90;;;;;;5019813;28;20531;-46
2023/03/13 08:43:35;;;;;;;9.50;4.73;;;10.80;99.90;;;;;;5035936;28;20978;-46
2023/03/13 08:46:01;;;;;;;7.03;5.60;;;10.90;99.90;;;;;;5035964;28;20568;-46
2023/03/13 08:48:27;;;;;;;9.03;6.03;;;10.90;99.90;;;;;;5035989;28;20645;-44
2023/03/13 08:51:20;;;;;;;7.30;5.73;;;10.90;99.90;;;;;;5035471;28;20622;-45
2023/03/13 08:53:46;;;;;;;10.73;6.60;;;11.00;99.90;;;;;;5034637;28;21023;-45
2023/03/13 08:56:14;;;;;;;9.80;6.47;;;11.00;99.90;;;;;;5035300;28;20516;-46
2023/03/13 08:58:40;;;;;;;9.47;6.60;;;11.10;99.90;;;;;;5035970;28;20187;-45
2023/03/13 09:01:09;;;;;;;9.57;6.67;;;11.10;99.90;;;;;;5035688;28;20420;-45
2023/03/13 09:03:35;;;;;;;9.43;6.50;;;11.10;99.90;;;;;;5035801;28;20186;-46
2023/03/13 09:06:02;;;;;;;10.50;7.00;;;11.20;99.90;;;;;;5035444;28;20500;-46
2023/03/13 09:08:29;;;;;;;11.53;6.87;;;11.20;99.90;;;;;;5035773;28;20409;-47
2023/03/13 09:10:56;;;;;;;11.23;7.40;;;11.30;99.90;;;;;;5035574;28;20857;-47
2023/03/13 09:13:23;;;;;;;10.40;6.60;;;11.30;99.90;;;;;;5035547;28;20418;-47
2023/03/13 09:16:00;;;;;;;11.03;7.30;;;11.40;99.90;;;;;;5035104;28;20467;-47
2023/03/13 09:18:26;;;;;;;12.53;6.77;;;11.50;99.90;;;;;;5025457;28;20433;-47
2023/03/13 09:20:52;;;;;;;15.53;8.10;;;11.50;99.90;;;;;;5015243;28;20902;-48
2023/03/13 09:23:18;;;;;;;10.37;7.07;;;11.60;99.90;;;;;;5016877;28;20461;-47
2023/03/13 09:25:43;;;;;;;10.80;8.07;;;11.60;99.90;;;;;;5021765;28;20237;-48
2023/03/13 09:28:09;;;;;;;12.40;7.80;;;11.60;99.90;;;;;;5021865;28;20212;-49
2023/03/13 09:30:35;;;;;;;10.50;7.03;;;11.70;99.90;;;;;;5021403;28;20222;-47
2023/03/13 09:33:00;;;;;;;9.60;6.97;;;11.70;99.90;;;;;;5021575;28;20528;-48
2023/03/13 09:35:26;;;;;;;10.00;7.10;;;11.70;99.90;;;;;;5021610;28;21100;-47
2023/03/13 09:37:51;;;;;;;11.43;7.37;;;11.80;99.90;;;;;;5018202;28;20604;-49
2023/03/13 09:40:20;;;;;;;10.83;7.30;;;11.80;99.90;;;;;;5020948;28;20194;-49
2023/03/13 09:42:56;;;;;;;9.70;6.97;;;11.80;99.90;;;;;;5016860;28;20297;-48
2023/03/13 09:45:32;;;;;;;12.10;6.93;;;11.90;99.90;;;;;;5017361;28;20989;-47
2023/03/13 09:48:05;;;;;;;7.47;6.53;;;11.90;99.90;;;;;;5017495;28;20960;-47
2023/03/13 09:50:39;;;;;;;11.80;7.60;;;11.90;99.90;;;;;;5017664;28;20525;-47
2023/03/13 09:53:25;;;;;;;10.47;7.67;;;11.90;99.90;;;;;;5027686;28;20459;-47
2023/03/13 09:55:51;;;;;;;13.93;7.33;;;11.90;99.90;;;;;;5021451;28;20433;-48
2023/03/13 09:58:24;;;;;;;13.30;8.13;;;12.00;99.90;;;;;;5021144;28;20441;-46
2023/03/13 10:01:01;;;;;;;9.97;7.30;;;12.00;99.90;;;;;;5017161;28;20460;-47
2023/03/13 10:03:44;;;;;;;12.03;8.33;;;12.00;99.90;;;;;;5022232;28;20452;-47
2023/03/13 10:06:18;;;;;;;11.17;7.57;;;12.00;99.90;;;;;;5020884;28;21073;-47
2023/03/13 10:08:44;;;;;;;10.43;7.40;;;12.10;99.90;;;;;;5016959;28;20446;-47
2023/03/13 10:11:11;;;;;;;13.73;7.60;;;12.00;99.90;;;;;;5016600;28;20799;-48
2023/03/13 10:13:37;;;;;;;11.30;6.90;;;12.10;99.90;;;;;;5016269;28;20740;-48
2023/03/13 10:16:09;;;;;;;12.83;8.23;;;12.10;99.90;;;;;;5016680;28;20442;-48
2023/03/13 10:18:35;;;;;;;11.53;7.50;;;12.10;99.90;;;;;;5017575;28;20192;-48
2023/03/13 10:21:15;;;;;;;12.07;7.73;;;12.20;99.90;;;;;;5017216;28;20441;-49
2023/03/13 10:23:52;;;;;;;14.37;7.57;;;12.20;99.90;;;;;;5020282;28;20480;-49
2023/03/13 10:26:26;;;;;;;10.37;7.00;;;12.20;99.90;;;;;;5016414;28;20480;-48
2023/03/13 10:28:53;;;;;;;14.10;6.80;;;12.20;99.90;;;;;;5016922;28;20437;-48
2023/03/13 10:31:33;;;;;;;10.00;6.40;;;12.30;99.90;;;;;;5016598;28;20437;-48
2023/03/13 10:34:11;;;;;;;11.07;5.87;;;12.50;99.90;;;;;;5020626;28;20504;-48
2023/03/13 10:36:42;;;;;;;7.23;6.43;;;12.70;99.90;;;;;;5019968;28;20544;-49
2023/03/13 10:39:17;;;;;;;7.57;5.40;;;12.90;99.90;;;;;;5020249;28;20929;-50
2023/03/13 10:41:43;;;;;;;8.33;5.30;;;13.10;89.20;;;;;;5021029;28;20456;-49
2023/03/13 10:44:21;;;;;;;8.70;5.50;;;13.30;4.60;;;;;;5019857;28;21017;-50
2023/03/13 10:46:49;;;;;;;6.80;4.53;;;13.70;1.00;;;;;;5016443;28;20238;-50
2023/03/13 10:49:18;;;;;;;8.23;5.60;;;14.00;1.00;;;;;;5016262;28;20813;-51
2023/03/13 10:51:53;;;;;;;5.10;4.33;;;14.20;99.90;;;;;;5019779;28;20468;-51
2023/03/13 10:54:25;;;;;;;8.97;5.30;;;14.20;93.50;;;;;;5016881;28;20445;-51
2023/03/13 10:56:54;;;;;;;9.37;5.30;;;14.10;99.90;;;;;;5016694;28;20442;-50
2023/03/13 10:59:24;;;;;;;5.40;4.90;;;13.90;25.30;;;;;;5016232;28;20441;-50
2023/03/13 11:01:59;;;;;;;6.33;4.80;;;13.80;99.90;;;;;;5016114;28;21095;-50
2023/03/13 11:04:33;;;;;;;6.07;5.47;;;13.60;99.90;;;;;;5016682;28;20434;-50
2023/03/13 11:07:18;;;;;;;7.30;5.00;;;13.50;99.90;;;;;;5016155;28;21051;-50
2023/03/13 11:09:59;;;;;;;10.83;5.17;;;13.40;99.90;;;;;;5016124;28;20502;-50
2023/03/13 11:12:26;;;;;;;7.80;5.13;;;13.30;99.90;;;;;;5022216;28;20492;-50
2023/03/13 11:14:59;;;;;;;7.33;5.20;;;13.20;99.90;;;;;;5026051;28;20819;-50
2023/03/13 11:17:40;;;;;;;9.40;5.50;;;13.30;99.90;;;;;;5024043;28;20477;-50
2023/03/13 11:20:24;;;;;;;11.77;5.50;;;13.40;99.90;;;;;;5027367;28;20476;-51
2023/03/13 11:22:52;;;;;;;5.27;4.20;;;13.70;99.90;;;;;;5020373;28;20466;-51
2023/03/13 11:25:20;;;;;;;6.70;4.10;;;14.40;99.90;;;;;;5020387;28;20507;-51
2023/03/13 11:28:21;;;;;;;5.57;4.03;;;14.70;1.00;;;;;;5023235;28;20452;-51
2023/03/13 11:30:56;;;;;;;6.47;3.80;;;14.90;1.00;;;;;;5019825;28;20441;-52
2023/03/13 11:33:34;;;;;;;3.93;2.87;;;15.20;99.90;;;;;;5023727;28;20523;-52
2023/03/13 11:35:59;;;;;;;6.93;2.90;;;15.60;1.00;;;;;;5019438;28;20432;-52
2023/03/13 11:38:45;;;;;;;4.40;2.50;;;16.00;99.90;;;;;;5019733;28;20448;-53
2023/03/13 11:41:35;;;;;;;3.83;2.27;;;16.30;99.90;;;;;;5020966;28;20226;-51
2023/03/13 11:44:11;;;;;;;9.33;2.67;;;16.20;97.10;;;;;;5019558;28;20495;-52
2023/03/13 11:46:52;;;;;;;3.23;2.50;;;16.00;99.90;;;;;;5022982;28;20508;-52
2023/03/13 11:49:28;;;;;;;3.03;1.97;;;15.60;1.00;;;;;;5018969;28;20944;-51
2023/03/13 11:52:30;;;;;;;4.83;2.20;;;15.40;99.90;;;;;;5024454;28;20456;-51
2023/03/13 11:55:28;;;;;;;3.30;2.17;;;15.70;99.90;;;;;;5021566;28;20451;-51
2023/03/13 11:58:09;;;;;;;6.37;3.77;;;16.20;99.90;;;;;;5026734;28;20464;-52
2023/03/13 12:00:39;;;;;;;5.30;2.33;;;16.80;68.90;;;;;;5019316;28;20964;-51
2023/03/13 12:03:21;;;;;;;3.63;2.30;;;17.30;11.60;;;;;;5023533;28;20449;-51
2023/03/13 12:05:52;;;;;;;5.47;2.40;;;17.20;1.00;;;;;;5023112;28;20985;-51
2023/03/13 12:08:24;;;;;;;3.97;2.20;;;16.50;1.00;;;;;;5019236;28;20525;-51
2023/03/13 12:10:57;;;;;;;6.77;2.70;;;16.10;8.80;;;;;;5018857;28;20460;-51
2023/03/13 12:13:35;;;;;;;3.13;2.40;;;15.80;34.30;;;;;;5019298;28;20443;-51
2023/03/13 12:16:08;;;;;;;2.80;2.53;;;15.90;40.10;;;;;;5019166;28;20449;-50
2023/03/13 12:18:37;;;;;;;4.97;2.40;;;16.50;5.50;;;;;;5018929;28;20500;-50
2023/03/13 12:21:12;;;;;;;7.70;2.90;;;16.70;1.00;;;;;;5019452;28;20579;-51
2023/03/13 12:23:46;;;;;;;4.33;2.40;;;16.70;1.00;;;;;;5019337;28;20484;-51
2023/03/13 12:26:15;;;;;;;7.40;2.17;;;17.10;1.00;;;;;;5018800;28;20480;-50
2023/03/13 12:29:05;;;;;;;5.27;2.40;;;16.80;1.00;;;;;;5019673;28;20450;-51
2023/03/13 12:31:47;;;;;;;5.90;2.60;;;16.50;1.00;;;;;;5022898;28;20817;-51
2023/03/13 12:34:49;;;;;;;5.87;2.87;;;16.20;1.00;;;;;;5018820;28;20440;-52
2023/03/13 12:37:23;;;;;;;3.80;2.23;;;16.00;1.00;;;;;;5007620;28;20535;-51
2023/03/13 12:40:22;;;;;;;4.30;2.70;;;15.80;1.00;;;;;;5018404;28;20539;-50
2023/03/13 12:43:06;;;;;;;6.47;2.33;;;15.70;1.00;;;;;;5016093;28;20468;-50
2023/03/13 12:45:44;;;;;;;3.67;2.10;;;15.70;1.00;;;;;;5018276;28;20999;-51
2023/03/13 12:48:50;;;;;;;3.22;2.28;;;15.90;1.00;;;;;;5018314;28;20522;-51
2023/03/13 12:51:22;;;;;;;2.50;2.30;;;16.10;1.00;;;;;;5018499;28;20193;-51
2023/03/13 12:54:06;;;;;;;3.07;2.17;;;16.10;1.00;;;;;;5018727;28;20450;-52
2023/03/13 12:56:53;;;;;;;3.90;2.17;;;16.10;1.00;;;;;;5021359;28;20980;-53
2023/03/13 12:59:31;;;;;;;4.90;2.23;;;16.50;1.00;;;;;;5018342;28;20465;-51
2023/03/13 13:01:58;;;;;;;8.13;2.30;;;16.40;1.00;;;;;;5018156;28;20491;-53